sensor_id;sensor_type;location;lat;lon;timestamp;P1;durP1;ratioP1;P2;durP2;ratioP2
59571;SDS011;70118;45.638;11.714;2023-08-20T00:00:17;11.45;;;9.30;;
59571;SDS011;70118;45.638;11.714;2023-08-20T00:02:45;12.02;;;9.30;;
59571;SDS011;70118;45.638;11.714;2023-08-20T00:05:12;10.10;;;9.00;;
59571;SDS011;70118;45.638;11.714;2023-08-20T00:07:39;10.57;;;8.85;;
59571;SDS011;70118;45.638;11.714;2023-08-20T00:10:05;10.32;;;8.68;;
59571;SDS011;70118;45.638;11.714;2023-08-20T00:12:32;9.98;;;8.77;;
59571;SDS011;70118;45.638;11.714;2023-08-20T00:14:58;10.33;;;8.80;;
59571;SDS011;70118;45.638;11.714;2023-08-20T00:17:35;9.70;;;8.57;;
59571;SDS011;70118;45.638;11.714;2023-08-20T00:20:04;10.05;;;8.68;;
59571;SDS011;70118;45.638;11.714;2023-08-20T00:22:40;10.50;;;8.93;;
59571;SDS011;70118;45.638;11.714;2023-08-20T00:25:10;10.93;;;9.10;;
59571;SDS011;70118;45.638;11.714;2023-08-20T00:27:38;10.77;;;9.20;;
59571;SDS011;70118;45.638;11.714;2023-08-20T00:30:05;10.70;;;8.60;;
59571;SDS011;70118;45.638;11.714;2023-08-20T00:32:31;11.55;;;9.23;;
59571;SDS011;70118;45.638;11.714;2023-08-20T00:34:57;10.95;;;9.05;;
59571;SDS011;70118;45.638;11.714;2023-08-20T00:37:23;10.67;;;9.40;;
59571;SDS011;70118;45.638;11.714;2023-08-20T00:39:49;10.60;;;9.33;;
59571;SDS011;70118;45.638;11.714;2023-08-20T00:42:14;10.77;;;8.82;;
59571;SDS011;70118;45.638;11.714;2023-08-20T00:44:40;10.75;;;9.18;;
59571;SDS011;70118;45.638;11.714;2023-08-20T00:47:09;10.87;;;9.13;;
59571;SDS011;70118;45.638;11.714;2023-08-20T00:49:35;10.95;;;9.70;;
59571;SDS011;70118;45.638;11.714;2023-08-20T00:52:02;11.00;;;8.85;;
59571;SDS011;70118;45.638;11.714;2023-08-20T00:54:29;12.75;;;9.52;;
59571;SDS011;70118;45.638;11.714;2023-08-20T00:56:57;10.82;;;9.23;;
59571;SDS011;70118;45.638;11.714;2023-08-20T00:59:24;12.07;;;10.23;;
59571;SDS011;70118;45.638;11.714;2023-08-20T01:01:50;10.65;;;9.07;;
59571;SDS011;70118;45.638;11.714;2023-08-20T01:04:16;11.02;;;9.10;;
59571;SDS011;70118;45.638;11.714;2023-08-20T01:09:48;10.83;;;8.67;;
59571;SDS011;70118;45.638;11.714;2023-08-20T01:12:34;11.30;;;8.43;;
59571;SDS011;70118;45.638;11.714;2023-08-20T01:15:01;11.27;;;8.70;;
59571;SDS011;70118;45.638;11.714;2023-08-20T01:17:27;9.65;;;7.95;;
59571;SDS011;70118;45.638;11.714;2023-08-20T01:19:54;10.77;;;8.80;;
59571;SDS011;70118;45.638;11.714;2023-08-20T01:27:51;12.35;;;9.13;;
59571;SDS011;70118;45.638;11.714;2023-08-20T01:30:26;10.02;;;8.52;;
59571;SDS011;70118;45.638;11.714;2023-08-20T01:32:53;10.38;;;8.95;;
59571;SDS011;70118;45.638;11.714;2023-08-20T01:35:19;10.40;;;8.70;;
59571;SDS011;70118;45.638;11.714;2023-08-20T01:37:45;10.57;;;9.05;;
59571;SDS011;70118;45.638;11.714;2023-08-20T01:40:11;9.82;;;8.55;;
59571;SDS011;70118;45.638;11.714;2023-08-20T01:42:38;9.80;;;8.05;;
59571;SDS011;70118;45.638;11.714;2023-08-20T01:45:04;10.63;;;8.60;;
59571;SDS011;70118;45.638;11.714;2023-08-20T01:47:31;10.48;;;8.02;;
59571;SDS011;70118;45.638;11.714;2023-08-20T01:49:58;10.40;;;8.10;;
59571;SDS011;70118;45.638;11.714;2023-08-20T01:52:24;11.00;;;8.85;;
59571;SDS011;70118;45.638;11.714;2023-08-20T01:54:50;10.38;;;8.95;;
59571;SDS011;70118;45.638;11.714;2023-08-20T01:57:16;9.90;;;8.43;;
59571;SDS011;70118;45.638;11.714;2023-08-20T01:59:42;9.98;;;8.85;;
59571;SDS011;70118;45.638;11.714;2023-08-20T02:02:08;11.07;;;9.35;;
59571;SDS011;70118;45.638;11.714;2023-08-20T02:04:34;11.03;;;8.87;;
59571;SDS011;70118;45.638;11.714;2023-08-20T02:06:59;11.75;;;9.55;;
59571;SDS011;70118;45.638;11.714;2023-08-20T02:09:25;10.35;;;9.13;;
59571;SDS011;70118;45.638;11.714;2023-08-20T02:11:51;10.40;;;8.37;;
59571;SDS011;70118;45.638;11.714;2023-08-20T02:14:17;10.63;;;8.82;;
59571;SDS011;70118;45.638;11.714;2023-08-20T02:16:43;10.65;;;9.15;;
59571;SDS011;70118;45.638;11.714;2023-08-20T02:19:11;11.25;;;8.88;;
59571;SDS011;70118;45.638;11.714;2023-08-20T02:21:36;11.13;;;8.80;;
59571;SDS011;70118;45.638;11.714;2023-08-20T02:24:03;10.25;;;9.00;;
59571;SDS011;70118;45.638;11.714;2023-08-20T02:26:29;10.60;;;8.90;;
59571;SDS011;70118;45.638;11.714;2023-08-20T02:28:55;11.43;;;8.43;;
59571;SDS011;70118;45.638;11.714;2023-08-20T02:31:21;9.40;;;7.67;;
59571;SDS011;70118;45.638;11.714;2023-08-20T02:33:46;11.25;;;8.52;;
59571;SDS011;70118;45.638;11.714;2023-08-20T02:36:12;10.38;;;8.80;;
59571;SDS011;70118;45.638;11.714;2023-08-20T02:38:38;11.97;;;8.70;;
59571;SDS011;70118;45.638;11.714;2023-08-20T02:41:04;10.18;;;8.65;;
59571;SDS011;70118;45.638;11.714;2023-08-20T02:43:30;9.73;;;8.48;;
59571;SDS011;70118;45.638;11.714;2023-08-20T02:45:56;10.47;;;8.83;;
59571;SDS011;70118;45.638;11.714;2023-08-20T02:48:22;10.50;;;8.80;;
59571;SDS011;70118;45.638;11.714;2023-08-20T02:50:52;10.55;;;8.55;;
59571;SDS011;70118;45.638;11.714;2023-08-20T02:53:19;11.82;;;8.38;;
59571;SDS011;70118;45.638;11.714;2023-08-20T02:55:46;9.77;;;8.37;;
59571;SDS011;70118;45.638;11.714;2023-08-20T02:58:12;9.65;;;8.40;;
59571;SDS011;70118;45.638;11.714;2023-08-20T03:00:38;9.90;;;8.90;;
59571;SDS011;70118;45.638;11.714;2023-08-20T03:03:03;9.03;;;8.13;;
59571;SDS011;70118;45.638;11.714;2023-08-20T03:05:33;10.13;;;8.75;;
59571;SDS011;70118;45.638;11.714;2023-08-20T03:08:00;9.05;;;8.05;;
59571;SDS011;70118;45.638;11.714;2023-08-20T03:10:29;9.70;;;8.23;;
59571;SDS011;70118;45.638;11.714;2023-08-20T03:12:57;8.60;;;7.70;;
59571;SDS011;70118;45.638;11.714;2023-08-20T03:15:23;11.77;;;8.20;;
59571;SDS011;70118;45.638;11.714;2023-08-20T03:17:49;10.40;;;8.32;;
59571;SDS011;70118;45.638;11.714;2023-08-20T03:20:15;9.43;;;8.10;;
59571;SDS011;70118;45.638;11.714;2023-08-20T03:22:41;10.70;;;8.30;;
59571;SDS011;70118;45.638;11.714;2023-08-20T03:25:07;11.45;;;8.98;;
59571;SDS011;70118;45.638;11.714;2023-08-20T03:27:33;11.55;;;9.13;;
59571;SDS011;70118;45.638;11.714;2023-08-20T03:29:59;12.05;;;9.35;;
59571;SDS011;70118;45.638;11.714;2023-08-20T03:32:25;11.50;;;9.27;;
59571;SDS011;70118;45.638;11.714;2023-08-20T03:34:51;10.55;;;9.20;;
59571;SDS011;70118;45.638;11.714;2023-08-20T03:37:18;11.32;;;9.68;;
59571;SDS011;70118;45.638;11.714;2023-08-20T03:39:44;10.40;;;9.30;;
59571;SDS011;70118;45.638;11.714;2023-08-20T03:42:10;11.03;;;8.77;;
59571;SDS011;70118;45.638;11.714;2023-08-20T03:44:36;10.35;;;9.25;;
59571;SDS011;70118;45.638;11.714;2023-08-20T03:47:02;11.52;;;9.55;;
59571;SDS011;70118;45.638;11.714;2023-08-20T03:49:28;12.27;;;9.10;;
59571;SDS011;70118;45.638;11.714;2023-08-20T03:51:53;10.73;;;8.73;;
59571;SDS011;70118;45.638;11.714;2023-08-20T03:54:19;10.00;;;8.52;;
59571;SDS011;70118;45.638;11.714;2023-08-20T03:56:45;11.53;;;9.13;;
59571;SDS011;70118;45.638;11.714;2023-08-20T03:59:11;10.60;;;9.00;;
59571;SDS011;70118;45.638;11.714;2023-08-20T04:01:37;10.17;;;9.07;;
59571;SDS011;70118;45.638;11.714;2023-08-20T04:04:03;10.70;;;9.43;;
59571;SDS011;70118;45.638;11.714;2023-08-20T04:06:29;11.23;;;9.13;;
59571;SDS011;70118;45.638;11.714;2023-08-20T04:08:55;11.43;;;9.30;;
59571;SDS011;70118;45.638;11.714;2023-08-20T04:11:21;10.57;;;9.23;;
59571;SDS011;70118;45.638;11.714;2023-08-20T04:13:47;10.63;;;9.30;;
59571;SDS011;70118;45.638;11.714;2023-08-20T04:16:13;10.95;;;9.02;;
59571;SDS011;70118;45.638;11.714;2023-08-20T04:18:39;10.47;;;9.37;;
59571;SDS011;70118;45.638;11.714;2023-08-20T04:21:05;11.25;;;10.02;;
59571;SDS011;70118;45.638;11.714;2023-08-20T04:23:32;13.60;;;9.95;;
59571;SDS011;70118;45.638;11.714;2023-08-20T04:25:58;11.30;;;10.05;;
59571;SDS011;70118;45.638;11.714;2023-08-20T04:28:24;10.80;;;8.87;;
59571;SDS011;70118;45.638;11.714;2023-08-20T04:30:52;9.60;;;8.30;;
59571;SDS011;70118;45.638;11.714;2023-08-20T04:33:19;8.27;;;7.38;;
59571;SDS011;70118;45.638;11.714;2023-08-20T04:35:45;10.15;;;7.60;;
59571;SDS011;70118;45.638;11.714;2023-08-20T04:38:11;9.40;;;7.28;;
59571;SDS011;70118;45.638;11.714;2023-08-20T04:40:37;9.33;;;8.07;;
59571;SDS011;70118;45.638;11.714;2023-08-20T04:43:03;9.82;;;7.97;;
59571;SDS011;70118;45.638;11.714;2023-08-20T04:45:29;10.40;;;8.63;;
59571;SDS011;70118;45.638;11.714;2023-08-20T04:47:55;10.55;;;8.75;;
59571;SDS011;70118;45.638;11.714;2023-08-20T04:50:21;9.35;;;8.32;;
59571;SDS011;70118;45.638;11.714;2023-08-20T04:52:46;10.20;;;8.47;;
59571;SDS011;70118;45.638;11.714;2023-08-20T04:55:12;9.60;;;8.00;;
59571;SDS011;70118;45.638;11.714;2023-08-20T04:57:40;10.00;;;8.25;;
59571;SDS011;70118;45.638;11.714;2023-08-20T05:00:06;11.30;;;8.98;;
59571;SDS011;70118;45.638;11.714;2023-08-20T05:02:34;11.20;;;9.00;;
59571;SDS011;70118;45.638;11.714;2023-08-20T05:05:01;11.27;;;9.27;;
59571;SDS011;70118;45.638;11.714;2023-08-20T05:07:27;11.05;;;9.05;;
59571;SDS011;70118;45.638;11.714;2023-08-20T05:09:53;9.75;;;8.00;;
59571;SDS011;70118;45.638;11.714;2023-08-20T05:12:19;9.70;;;8.25;;
59571;SDS011;70118;45.638;11.714;2023-08-20T05:14:45;10.73;;;9.10;;
59571;SDS011;70118;45.638;11.714;2023-08-20T05:17:11;10.73;;;7.88;;
59571;SDS011;70118;45.638;11.714;2023-08-20T05:19:37;10.13;;;8.87;;
59571;SDS011;70118;45.638;11.714;2023-08-20T05:22:02;11.38;;;8.38;;
59571;SDS011;70118;45.638;11.714;2023-08-20T05:24:28;11.10;;;8.38;;
59571;SDS011;70118;45.638;11.714;2023-08-20T05:29:39;9.35;;;8.18;;
59571;SDS011;70118;45.638;11.714;2023-08-20T05:32:06;9.55;;;8.10;;
59571;SDS011;70118;45.638;11.714;2023-08-20T05:34:34;9.13;;;7.65;;
59571;SDS011;70118;45.638;11.714;2023-08-20T05:37:00;10.05;;;7.68;;
59571;SDS011;70118;45.638;11.714;2023-08-20T05:39:26;9.23;;;7.63;;
59571;SDS011;70118;45.638;11.714;2023-08-20T05:41:53;10.98;;;8.02;;
59571;SDS011;70118;45.638;11.714;2023-08-20T05:44:19;9.40;;;8.05;;
59571;SDS011;70118;45.638;11.714;2023-08-20T05:46:45;11.50;;;8.15;;
59571;SDS011;70118;45.638;11.714;2023-08-20T05:49:14;10.70;;;8.27;;
59571;SDS011;70118;45.638;11.714;2023-08-20T05:51:43;9.23;;;7.43;;
59571;SDS011;70118;45.638;11.714;2023-08-20T05:54:10;9.73;;;8.27;;
59571;SDS011;70118;45.638;11.714;2023-08-20T05:56:52;8.55;;;7.65;;
59571;SDS011;70118;45.638;11.714;2023-08-20T05:59:28;9.30;;;7.82;;
59571;SDS011;70118;45.638;11.714;2023-08-20T06:01:54;10.38;;;7.93;;
59571;SDS011;70118;45.638;11.714;2023-08-20T06:04:20;9.13;;;7.93;;
59571;SDS011;70118;45.638;11.714;2023-08-20T06:06:47;10.55;;;7.70;;
59571;SDS011;70118;45.638;11.714;2023-08-20T06:09:16;8.65;;;7.30;;
59571;SDS011;70118;45.638;11.714;2023-08-20T06:11:42;8.82;;;7.68;;
59571;SDS011;70118;45.638;11.714;2023-08-20T06:14:08;8.77;;;7.10;;
59571;SDS011;70118;45.638;11.714;2023-08-20T06:16:34;9.15;;;7.03;;
59571;SDS011;70118;45.638;11.714;2023-08-20T06:19:00;8.70;;;7.50;;
59571;SDS011;70118;45.638;11.714;2023-08-20T06:21:25;10.17;;;7.60;;
59571;SDS011;70118;45.638;11.714;2023-08-20T06:23:51;9.57;;;7.68;;
59571;SDS011;70118;45.638;11.714;2023-08-20T06:26:18;8.60;;;7.07;;
59571;SDS011;70118;45.638;11.714;2023-08-20T06:28:45;7.70;;;6.80;;
59571;SDS011;70118;45.638;11.714;2023-08-20T06:31:11;9.88;;;6.80;;
59571;SDS011;70118;45.638;11.714;2023-08-20T06:33:37;7.57;;;6.20;;
59571;SDS011;70118;45.638;11.714;2023-08-20T06:36:03;8.55;;;7.07;;
59571;SDS011;70118;45.638;11.714;2023-08-20T06:38:29;8.57;;;6.83;;
59571;SDS011;70118;45.638;11.714;2023-08-20T06:40:55;9.18;;;6.78;;
59571;SDS011;70118;45.638;11.714;2023-08-20T06:43:21;8.57;;;6.82;;
59571;SDS011;70118;45.638;11.714;2023-08-20T06:45:47;9.03;;;6.77;;
59571;SDS011;70118;45.638;11.714;2023-08-20T06:48:13;8.52;;;6.90;;
59571;SDS011;70118;45.638;11.714;2023-08-20T06:50:41;9.27;;;6.88;;
59571;SDS011;70118;45.638;11.714;2023-08-20T06:53:07;7.35;;;6.40;;
59571;SDS011;70118;45.638;11.714;2023-08-20T06:55:33;9.30;;;7.03;;
59571;SDS011;70118;45.638;11.714;2023-08-20T06:58:01;8.70;;;6.95;;
59571;SDS011;70118;45.638;11.714;2023-08-20T07:00:27;9.05;;;6.82;;
59571;SDS011;70118;45.638;11.714;2023-08-20T07:02:53;9.15;;;6.55;;
59571;SDS011;70118;45.638;11.714;2023-08-20T07:05:20;9.73;;;7.27;;
59571;SDS011;70118;45.638;11.714;2023-08-20T07:07:47;10.57;;;6.80;;
59571;SDS011;70118;45.638;11.714;2023-08-20T07:10:15;8.88;;;6.70;;
59571;SDS011;70118;45.638;11.714;2023-08-20T07:12:41;8.80;;;6.70;;
59571;SDS011;70118;45.638;11.714;2023-08-20T07:15:07;9.48;;;6.90;;
59571;SDS011;70118;45.638;11.714;2023-08-20T07:17:33;8.98;;;7.03;;
59571;SDS011;70118;45.638;11.714;2023-08-20T07:19:59;10.03;;;6.93;;
59571;SDS011;70118;45.638;11.714;2023-08-20T07:22:25;8.82;;;6.65;;
59571;SDS011;70118;45.638;11.714;2023-08-20T07:24:50;9.82;;;7.05;;
59571;SDS011;70118;45.638;11.714;2023-08-20T07:27:17;9.20;;;6.33;;
59571;SDS011;70118;45.638;11.714;2023-08-20T07:29:43;10.02;;;7.00;;
59571;SDS011;70118;45.638;11.714;2023-08-20T07:32:09;9.85;;;7.32;;
59571;SDS011;70118;45.638;11.714;2023-08-20T07:34:35;11.88;;;7.28;;
59571;SDS011;70118;45.638;11.714;2023-08-20T07:37:01;10.57;;;7.37;;
59571;SDS011;70118;45.638;11.714;2023-08-20T07:39:27;10.05;;;6.80;;
59571;SDS011;70118;45.638;11.714;2023-08-20T07:41:53;11.23;;;7.15;;
59571;SDS011;70118;45.638;11.714;2023-08-20T07:44:19;11.10;;;7.90;;
59571;SDS011;70118;45.638;11.714;2023-08-20T07:46:45;10.95;;;7.57;;
59571;SDS011;70118;45.638;11.714;2023-08-20T07:49:11;10.70;;;7.72;;
59571;SDS011;70118;45.638;11.714;2023-08-20T07:51:37;10.30;;;7.37;;
59571;SDS011;70118;45.638;11.714;2023-08-20T07:54:02;10.15;;;7.20;;
59571;SDS011;70118;45.638;11.714;2023-08-20T07:56:28;9.35;;;7.03;;
59571;SDS011;70118;45.638;11.714;2023-08-20T07:58:54;12.80;;;7.67;;
59571;SDS011;70118;45.638;11.714;2023-08-20T08:01:20;10.38;;;7.18;;
59571;SDS011;70118;45.638;11.714;2023-08-20T08:03:47;10.00;;;7.38;;
59571;SDS011;70118;45.638;11.714;2023-08-20T08:06:13;9.93;;;6.80;;
59571;SDS011;70118;45.638;11.714;2023-08-20T08:08:41;10.35;;;7.22;;
59571;SDS011;70118;45.638;11.714;2023-08-20T08:11:09;10.93;;;7.63;;
59571;SDS011;70118;45.638;11.714;2023-08-20T08:13:35;9.43;;;7.40;;
59571;SDS011;70118;45.638;11.714;2023-08-20T08:16:01;10.63;;;7.40;;
59571;SDS011;70118;45.638;11.714;2023-08-20T08:18:27;9.27;;;6.78;;
59571;SDS011;70118;45.638;11.714;2023-08-20T08:20:53;10.23;;;7.63;;
59571;SDS011;70118;45.638;11.714;2023-08-20T08:23:19;9.80;;;6.72;;
59571;SDS011;70118;45.638;11.714;2023-08-20T08:25:45;8.88;;;6.43;;
59571;SDS011;70118;45.638;11.714;2023-08-20T08:28:11;9.70;;;6.75;;
59571;SDS011;70118;45.638;11.714;2023-08-20T08:30:37;9.43;;;7.37;;
59571;SDS011;70118;45.638;11.714;2023-08-20T08:33:04;8.43;;;6.80;;
59571;SDS011;70118;45.638;11.714;2023-08-20T08:35:30;8.90;;;7.07;;
59571;SDS011;70118;45.638;11.714;2023-08-20T08:37:56;9.83;;;6.80;;
59571;SDS011;70118;45.638;11.714;2023-08-20T08:40:23;8.68;;;7.03;;
59571;SDS011;70118;45.638;11.714;2023-08-20T08:42:53;9.90;;;7.18;;
59571;SDS011;70118;45.638;11.714;2023-08-20T08:45:19;8.23;;;6.68;;
59571;SDS011;70118;45.638;11.714;2023-08-20T08:47:46;10.52;;;7.05;;
59571;SDS011;70118;45.638;11.714;2023-08-20T08:50:13;9.57;;;6.80;;
59571;SDS011;70118;45.638;11.714;2023-08-20T08:52:39;10.55;;;7.40;;
59571;SDS011;70118;45.638;11.714;2023-08-20T08:55:06;10.05;;;7.10;;
59571;SDS011;70118;45.638;11.714;2023-08-20T08:57:34;10.38;;;7.10;;
59571;SDS011;70118;45.638;11.714;2023-08-20T09:00:01;9.63;;;6.80;;
59571;SDS011;70118;45.638;11.714;2023-08-20T09:02:28;9.17;;;7.03;;
59571;SDS011;70118;45.638;11.714;2023-08-20T09:04:54;10.32;;;7.00;;
59571;SDS011;70118;45.638;11.714;2023-08-20T09:07:20;11.07;;;8.07;;
59571;SDS011;70118;45.638;11.714;2023-08-20T09:09:46;12.75;;;7.82;;
59571;SDS011;70118;45.638;11.714;2023-08-20T09:12:20;10.57;;;6.97;;
59571;SDS011;70118;45.638;11.714;2023-08-20T09:14:46;10.70;;;7.68;;
59571;SDS011;70118;45.638;11.714;2023-08-20T09:17:16;9.02;;;7.32;;
59571;SDS011;70118;45.638;11.714;2023-08-20T09:19:44;10.50;;;7.75;;
59571;SDS011;70118;45.638;11.714;2023-08-20T09:22:14;9.95;;;7.35;;
59571;SDS011;70118;45.638;11.714;2023-08-20T09:24:41;10.07;;;7.23;;
59571;SDS011;70118;45.638;11.714;2023-08-20T09:27:12;11.65;;;7.82;;
59571;SDS011;70118;45.638;11.714;2023-08-20T09:29:45;11.73;;;8.02;;
59571;SDS011;70118;45.638;11.714;2023-08-20T09:32:15;15.02;;;8.85;;
59571;SDS011;70118;45.638;11.714;2023-08-20T09:34:42;14.70;;;8.93;;
59571;SDS011;70118;45.638;11.714;2023-08-20T09:37:14;13.73;;;9.13;;
59571;SDS011;70118;45.638;11.714;2023-08-20T09:39:42;14.77;;;9.00;;
59571;SDS011;70118;45.638;11.714;2023-08-20T09:42:09;16.98;;;8.93;;
59571;SDS011;70118;45.638;11.714;2023-08-20T09:44:36;14.32;;;8.63;;
59571;SDS011;70118;45.638;11.714;2023-08-20T09:47:11;14.43;;;9.50;;
59571;SDS011;70118;45.638;11.714;2023-08-20T09:49:41;15.27;;;9.53;;
59571;SDS011;70118;45.638;11.714;2023-08-20T09:52:09;16.75;;;9.43;;
59571;SDS011;70118;45.638;11.714;2023-08-20T09:57:40;15.52;;;8.73;;
59571;SDS011;70118;45.638;11.714;2023-08-20T10:00:07;16.05;;;8.90;;
59571;SDS011;70118;45.638;11.714;2023-08-20T10:02:38;14.87;;;9.37;;
59571;SDS011;70118;45.638;11.714;2023-08-20T10:05:11;13.18;;;8.77;;
59571;SDS011;70118;45.638;11.714;2023-08-20T10:07:38;14.43;;;8.68;;
59571;SDS011;70118;45.638;11.714;2023-08-20T10:10:05;13.40;;;8.00;;
59571;SDS011;70118;45.638;11.714;2023-08-20T10:12:36;12.77;;;7.82;;
59571;SDS011;70118;45.638;11.714;2023-08-20T10:15:09;14.67;;;8.77;;
59571;SDS011;70118;45.638;11.714;2023-08-20T10:17:37;10.98;;;7.80;;
59571;SDS011;70118;45.638;11.714;2023-08-20T10:20:04;12.70;;;8.00;;
59571;SDS011;70118;45.638;11.714;2023-08-20T10:22:33;13.60;;;8.48;;
59571;SDS011;70118;45.638;11.714;2023-08-20T10:25:06;11.77;;;7.93;;
59571;SDS011;70118;45.638;11.714;2023-08-20T10:27:33;13.33;;;8.10;;
59571;SDS011;70118;45.638;11.714;2023-08-20T10:30:01;11.93;;;7.80;;
59571;SDS011;70118;45.638;11.714;2023-08-20T10:32:48;12.98;;;7.95;;
59571;SDS011;70118;45.638;11.714;2023-08-20T10:35:16;13.77;;;8.05;;
59571;SDS011;70118;45.638;11.714;2023-08-20T10:46:07;11.45;;;7.53;;
59571;SDS011;70118;45.638;11.714;2023-08-20T10:48:41;12.18;;;7.30;;
59571;SDS011;70118;45.638;11.714;2023-08-20T10:51:14;9.52;;;6.80;;
59571;SDS011;70118;45.638;11.714;2023-08-20T10:53:49;11.10;;;7.23;;
59571;SDS011;70118;45.638;11.714;2023-08-20T10:56:42;9.95;;;7.03;;
59571;SDS011;70118;45.638;11.714;2023-08-20T10:59:14;10.82;;;7.13;;
59571;SDS011;70118;45.638;11.714;2023-08-20T11:01:49;10.40;;;6.82;;
59571;SDS011;70118;45.638;11.714;2023-08-20T11:04:16;10.40;;;6.88;;
59571;SDS011;70118;45.638;11.714;2023-08-20T11:06:46;11.40;;;7.53;;
59571;SDS011;70118;45.638;11.714;2023-08-20T11:09:18;10.50;;;7.18;;
59571;SDS011;70118;45.638;11.714;2023-08-20T11:11:44;9.32;;;6.90;;
59571;SDS011;70118;45.638;11.714;2023-08-20T11:14:13;10.68;;;7.10;;
59571;SDS011;70118;45.638;11.714;2023-08-20T11:16:40;11.33;;;7.43;;
59571;SDS011;70118;45.638;11.714;2023-08-20T11:19:08;11.88;;;7.28;;
59571;SDS011;70118;45.638;11.714;2023-08-20T11:21:35;11.63;;;7.03;;
59571;SDS011;70118;45.638;11.714;2023-08-20T11:24:02;10.15;;;6.70;;
59571;SDS011;70118;45.638;11.714;2023-08-20T11:26:29;10.25;;;7.00;;
59571;SDS011;70118;45.638;11.714;2023-08-20T11:28:55;10.73;;;6.73;;
59571;SDS011;70118;45.638;11.714;2023-08-20T11:31:21;10.45;;;6.97;;
59571;SDS011;70118;45.638;11.714;2023-08-20T11:33:48;10.50;;;7.03;;
59571;SDS011;70118;45.638;11.714;2023-08-20T11:36:15;10.93;;;6.53;;
59571;SDS011;70118;45.638;11.714;2023-08-20T11:38:50;9.57;;;6.40;;
59571;SDS011;70118;45.638;11.714;2023-08-20T11:41:17;11.07;;;6.45;;
59571;SDS011;70118;45.638;11.714;2023-08-20T11:43:44;8.70;;;6.85;;
59571;SDS011;70118;45.638;11.714;2023-08-20T11:46:14;9.10;;;6.30;;
59571;SDS011;70118;45.638;11.714;2023-08-20T11:51:40;9.73;;;6.97;;
59571;SDS011;70118;45.638;11.714;2023-08-20T11:54:16;10.45;;;5.90;;
59571;SDS011;70118;45.638;11.714;2023-08-20T11:56:46;9.52;;;6.80;;
59571;SDS011;70118;45.638;11.714;2023-08-20T11:59:13;10.70;;;6.60;;
59571;SDS011;70118;45.638;11.714;2023-08-20T12:01:40;8.20;;;5.93;;
59571;SDS011;70118;45.638;11.714;2023-08-20T12:04:07;9.43;;;6.47;;
59571;SDS011;70118;45.638;11.714;2023-08-20T12:06:34;10.18;;;5.70;;
59571;SDS011;70118;45.638;11.714;2023-08-20T12:09:18;8.27;;;5.93;;
59571;SDS011;70118;45.638;11.714;2023-08-20T12:11:51;9.52;;;6.20;;
59571;SDS011;70118;45.638;11.714;2023-08-20T12:14:18;8.90;;;6.32;;
59571;SDS011;70118;45.638;11.714;2023-08-20T12:16:44;10.00;;;6.27;;
59571;SDS011;70118;45.638;11.714;2023-08-20T12:19:10;8.65;;;5.72;;
59571;SDS011;70118;45.638;11.714;2023-08-20T12:21:37;9.27;;;6.10;;
59571;SDS011;70118;45.638;11.714;2023-08-20T12:24:03;8.65;;;6.68;;
59571;SDS011;70118;45.638;11.714;2023-08-20T12:26:29;9.05;;;6.07;;
59571;SDS011;70118;45.638;11.714;2023-08-20T12:28:55;11.27;;;6.30;;
59571;SDS011;70118;45.638;11.714;2023-08-20T12:31:21;9.20;;;6.65;;
59571;SDS011;70118;45.638;11.714;2023-08-20T12:33:47;8.85;;;5.88;;
59571;SDS011;70118;45.638;11.714;2023-08-20T12:36:12;8.23;;;5.80;;
59571;SDS011;70118;45.638;11.714;2023-08-20T12:38:38;8.43;;;6.35;;
59571;SDS011;70118;45.638;11.714;2023-08-20T12:41:06;8.82;;;6.30;;
59571;SDS011;70118;45.638;11.714;2023-08-20T12:43:32;9.10;;;5.93;;
59571;SDS011;70118;45.638;11.714;2023-08-20T12:45:58;9.45;;;6.45;;
59571;SDS011;70118;45.638;11.714;2023-08-20T12:48:24;8.70;;;6.10;;
59571;SDS011;70118;45.638;11.714;2023-08-20T12:50:50;8.77;;;5.60;;
59571;SDS011;70118;45.638;11.714;2023-08-20T12:53:16;7.95;;;5.95;;
59571;SDS011;70118;45.638;11.714;2023-08-20T12:55:41;8.80;;;5.85;;
59571;SDS011;70118;45.638;11.714;2023-08-20T12:58:07;8.83;;;5.90;;
59571;SDS011;70118;45.638;11.714;2023-08-20T13:00:33;9.35;;;5.90;;
59571;SDS011;70118;45.638;11.714;2023-08-20T13:02:59;9.90;;;6.20;;
59571;SDS011;70118;45.638;11.714;2023-08-20T13:05:25;9.50;;;6.10;;
59571;SDS011;70118;45.638;11.714;2023-08-20T13:07:52;9.30;;;6.18;;
59571;SDS011;70118;45.638;11.714;2023-08-20T13:10:18;9.32;;;6.32;;
59571;SDS011;70118;45.638;11.714;2023-08-20T13:12:47;10.70;;;6.28;;
59571;SDS011;70118;45.638;11.714;2023-08-20T13:15:17;8.20;;;5.82;;
59571;SDS011;70118;45.638;11.714;2023-08-20T13:17:45;9.33;;;5.60;;
59571;SDS011;70118;45.638;11.714;2023-08-20T13:20:11;9.15;;;5.97;;
59571;SDS011;70118;45.638;11.714;2023-08-20T13:22:37;9.23;;;5.28;;
59571;SDS011;70118;45.638;11.714;2023-08-20T13:25:03;9.13;;;6.10;;
59571;SDS011;70118;45.638;11.714;2023-08-20T13:27:30;11.97;;;5.80;;
59571;SDS011;70118;45.638;11.714;2023-08-20T13:29:56;9.27;;;6.13;;
59571;SDS011;70118;45.638;11.714;2023-08-20T13:32:22;8.15;;;6.10;;
59571;SDS011;70118;45.638;11.714;2023-08-20T13:34:51;8.85;;;6.18;;
59571;SDS011;70118;45.638;11.714;2023-08-20T13:37:17;9.43;;;5.88;;
59571;SDS011;70118;45.638;11.714;2023-08-20T13:39:43;8.57;;;5.90;;
59571;SDS011;70118;45.638;11.714;2023-08-20T13:42:09;10.48;;;6.70;;
59571;SDS011;70118;45.638;11.714;2023-08-20T13:44:35;9.23;;;6.68;;
59571;SDS011;70118;45.638;11.714;2023-08-20T13:47:00;9.27;;;6.03;;
59571;SDS011;70118;45.638;11.714;2023-08-20T13:49:26;9.20;;;6.22;;
59571;SDS011;70118;45.638;11.714;2023-08-20T13:51:52;8.30;;;5.78;;
59571;SDS011;70118;45.638;11.714;2023-08-20T13:54:18;9.73;;;6.70;;
59571;SDS011;70118;45.638;11.714;2023-08-20T13:56:44;10.05;;;6.38;;
59571;SDS011;70118;45.638;11.714;2023-08-20T13:59:10;8.98;;;6.00;;
59571;SDS011;70118;45.638;11.714;2023-08-20T14:01:36;11.33;;;6.00;;
59571;SDS011;70118;45.638;11.714;2023-08-20T14:04:02;8.73;;;6.30;;
59571;SDS011;70118;45.638;11.714;2023-08-20T14:06:28;9.50;;;6.22;;
59571;SDS011;70118;45.638;11.714;2023-08-20T14:08:54;8.93;;;6.35;;
59571;SDS011;70118;45.638;11.714;2023-08-20T14:11:20;10.13;;;6.10;;
59571;SDS011;70118;45.638;11.714;2023-08-20T14:13:46;11.45;;;6.10;;
59571;SDS011;70118;45.638;11.714;2023-08-20T14:16:12;9.57;;;6.15;;
59571;SDS011;70118;45.638;11.714;2023-08-20T14:18:39;8.90;;;6.05;;
59571;SDS011;70118;45.638;11.714;2023-08-20T14:21:05;7.87;;;5.70;;
59571;SDS011;70118;45.638;11.714;2023-08-20T14:23:32;9.20;;;5.93;;
59571;SDS011;70118;45.638;11.714;2023-08-20T14:26:00;8.73;;;6.00;;
59571;SDS011;70118;45.638;11.714;2023-08-20T14:28:26;8.63;;;5.63;;
59571;SDS011;70118;45.638;11.714;2023-08-20T14:30:52;10.10;;;6.00;;
59571;SDS011;70118;45.638;11.714;2023-08-20T14:33:19;8.40;;;5.82;;
59571;SDS011;70118;45.638;11.714;2023-08-20T14:35:47;8.00;;;5.75;;
59571;SDS011;70118;45.638;11.714;2023-08-20T14:38:12;9.25;;;5.60;;
59571;SDS011;70118;45.638;11.714;2023-08-20T14:40:40;8.97;;;5.80;;
59571;SDS011;70118;45.638;11.714;2023-08-20T14:43:06;9.95;;;6.35;;
59571;SDS011;70118;45.638;11.714;2023-08-20T14:45:33;7.28;;;4.90;;
59571;SDS011;70118;45.638;11.714;2023-08-20T14:47:59;7.65;;;5.28;;
59571;SDS011;70118;45.638;11.714;2023-08-20T14:50:25;7.68;;;5.80;;